Albion, Idaho
Current Conditions -  °F | °C
As of 9:53 PM on Sunday 21 Dec 2014 (Local Time) from KBYI Reporting Station
Clear Clear  
Wind Chill: 26°   Ceiling: Unl
Heat Index: 37°   Visibility: 10mi
Dew Point: 32°   Wind: 22mph
Humidity: 82%   Direction: 260°W
Pressure: 30"   Gusts: 33mph
Location:  42.41°N, 113.58°W
Report Text: KBYI 220453Z AUTO 26019G29KT 10SM CLR 03/00 A3000 RMK AO2 PK WND 26031/0356 SNE20 SLP157 P0000 T00280000
Loading
Personal Weather Stations






























Interactive Weather Map New forecast layout! Learn more

10-Day Weather Forecast

Advertisements
Track Severe Weather on mobile